Aviation Digital Data Service (ADDS)

Output produced by METARs form (1438 UTC 19 January 2019)
found at http://www.aviationweather.gov/metar/data/
 
METAR text: RJCK 191100Z 35003KT 9999 FEW030 M04/M11 Q1011
Conditions at: RJCK (KUSHIRO AIRPORT , JP) observed 1100 UTC 19 January 2019
Temperature: -4.0°C (25°F)
Dewpoint: -11.0°C (12°F) [RH = 58%]
Pressure (altimeter): 29.85 inches Hg (1011.0 mb)
Winds: from the N (350 degrees) at 3 MPH (3 knots; 1.5 m/s)
Visibility: 6 or more miles (10+ km)
Ceiling: at least 12,000 feet AGL
Clouds: few clouds at 3000 feet AGL
Weather: no significant weather observed at this time

METAR text: RJCK 191000Z 31003KT 9999 FEW030 M03/M12 Q1010
Conditions at: RJCK (KUSHIRO AIRPORT , JP) observed 1000 UTC 19 January 2019
Temperature: -3.0°C (27°F)
Dewpoint: -12.0°C (10°F) [RH = 50%]
Pressure (altimeter): 29.82 inches Hg (1010.0 mb)
Winds: from the NW (310 degrees) at 3 MPH (3 knots; 1.5 m/s)
Visibility: 6 or more miles (10+ km)
Ceiling: at least 12,000 feet AGL
Clouds: few clouds at 3000 feet AGL
Weather: no significant weather observed at this time

METAR text: RJCK 190900Z VRB02KT 9999 FEW030 M04/M12 Q1010
Conditions at: RJCK (KUSHIRO AIRPORT , JP) observed 0900 UTC 19 January 2019
Temperature: -4.0°C (25°F)
Dewpoint: -12.0°C (10°F) [RH = 54%]
Pressure (altimeter): 29.82 inches Hg (1010.0 mb)
Winds: variable direction winds at 2 MPH (2 knots; 1.0 m/s)
Visibility: 6 or more miles (10+ km)
Ceiling: at least 12,000 feet AGL
Clouds: few clouds at 3000 feet AGL
Weather: no significant weather observed at this time

METAR text: RJCK 190800Z 27010KT 9999 FEW030 M02/M11 Q1009
Conditions at: RJCK (KUSHIRO AIRPORT , JP) observed 0800 UTC 19 January 2019
Temperature: -2.0°C (28°F)
Dewpoint: -11.0°C (12°F) [RH = 50%]
Pressure (altimeter): 29.79 inches Hg (1009.0 mb)
Winds: from the W (270 degrees) at 12 MPH (10 knots; 5.1 m/s)
Visibility: 6 or more miles (10+ km)
Ceiling: at least 12,000 feet AGL
Clouds: few clouds at 3000 feet AGL
Weather: no significant weather observed at this time

METAR text: RJCK 190700Z 27011KT 230V300 9999 FEW030 M01/M13 Q1009
Conditions at: RJCK (KUSHIRO AIRPORT , JP) observed 0700 UTC 19 January 2019
Temperature: -1.0°C (30°F)
Dewpoint: -13.0°C ( 9°F) [RH = 40%]
Pressure (altimeter): 29.79 inches Hg (1009.0 mb)
Winds: from the W (270 degrees) at 13 MPH (11 knots; 5.7 m/s)
Visibility: 6 or more miles (10+ km)
Ceiling: at least 12,000 feet AGL
Clouds: few clouds at 3000 feet AGL
Weather: no significant weather observed at this time

METAR text: RJCK 190600Z 26011KT 240V300 9999 FEW030 M00/M13 Q1008
Conditions at: RJCK (KUSHIRO AIRPORT , JP) observed 0600 UTC 19 January 2019
Temperature: 0.0°C (32°F)
Dewpoint: -13.0°C ( 9°F) [RH = 37%]
Pressure (altimeter): 29.76 inches Hg (1008.0 mb)
Winds: from the W (260 degrees) at 13 MPH (11 knots; 5.7 m/s)
Visibility: 6 or more miles (10+ km)
Ceiling: at least 12,000 feet AGL
Clouds: few clouds at 3000 feet AGL
Weather: no significant weather observed at this time

METAR text: RJCK 190500Z 26013KT 9999 FEW040 00/M13 Q1008
Conditions at: RJCK (KUSHIRO AIRPORT , JP) observed 0500 UTC 19 January 2019
Temperature: 0.0°C (32°F)
Dewpoint: -13.0°C ( 9°F) [RH = 37%]
Pressure (altimeter): 29.76 inches Hg (1008.0 mb)
Winds: from the W (260 degrees) at 15 MPH (13 knots; 6.7 m/s)
Visibility: 6 or more miles (10+ km)
Ceiling: at least 12,000 feet AGL
Clouds: few clouds at 4000 feet AGL
Weather: no significant weather observed at this time

METAR text: RJCK 190400Z 26010KT 220V300 9999 FEW030 00/M12 Q1009
Conditions at: RJCK (KUSHIRO AIRPORT , JP) observed 0400 UTC 19 January 2019
Temperature: 0.0°C (32°F)
Dewpoint: -12.0°C (10°F) [RH = 40%]
Pressure (altimeter): 29.79 inches Hg (1009.0 mb)
Winds: from the W (260 degrees) at 12 MPH (10 knots; 5.1 m/s)
Visibility: 6 or more miles (10+ km)
Ceiling: at least 12,000 feet AGL
Clouds: few clouds at 3000 feet AGL
Weather: no significant weather observed at this time

METAR text: RJCK 190300Z 24010KT 210V290 9999 FEW030 M00/M11 Q1009
Conditions at: RJCK (KUSHIRO AIRPORT , JP) observed 0300 UTC 19 January 2019
Temperature: 0.0°C (32°F)
Dewpoint: -11.0°C (12°F) [RH = 43%]
Pressure (altimeter): 29.79 inches Hg (1009.0 mb)
Winds: from the WSW (240 degrees) at 12 MPH (10 knots; 5.1 m/s)
Visibility: 6 or more miles (10+ km)
Ceiling: at least 12,000 feet AGL
Clouds: few clouds at 3000 feet AGL
Weather: no significant weather observed at this time

METAR text: RJCK 190200Z 25009KT 220V280 9999 FEW030 M02/M12 Q1010
Conditions at: RJCK (KUSHIRO AIRPORT , JP) observed 0200 UTC 19 January 2019
Temperature: -2.0°C (28°F)
Dewpoint: -12.0°C (10°F) [RH = 46%]
Pressure (altimeter): 29.82 inches Hg (1010.0 mb)
Winds: from the WSW (250 degrees) at 10 MPH (9 knots; 4.6 m/s)
Visibility: 6 or more miles (10+ km)
Ceiling: at least 12,000 feet AGL
Clouds: few clouds at 3000 feet AGL
Weather: no significant weather observed at this time

METAR text: RJCK 190100Z 27006KT 220V340 9999 FEW030 M03/M11 Q1011
Conditions at: RJCK (KUSHIRO AIRPORT , JP) observed 0100 UTC 19 January 2019
Temperature: -3.0°C (27°F)
Dewpoint: -11.0°C (12°F) [RH = 54%]
Pressure (altimeter): 29.85 inches Hg (1011.0 mb)
Winds: from the W (270 degrees) at 7 MPH (6 knots; 3.1 m/s)
Visibility: 6 or more miles (10+ km)
Ceiling: at least 12,000 feet AGL
Clouds: few clouds at 3000 feet AGL
Weather: no significant weather observed at this time

METAR text: RJCK 190000Z 24006KT 9999 FEW030 M05/M12 Q1012
Conditions at: RJCK (KUSHIRO AIRPORT , JP) observed 0000 UTC 19 January 2019
Temperature: -5.0°C (23°F)
Dewpoint: -12.0°C (10°F) [RH = 58%]
Pressure (altimeter): 29.88 inches Hg (1012.0 mb)
Winds: from the WSW (240 degrees) at 7 MPH (6 knots; 3.1 m/s)
Visibility: 6 or more miles (10+ km)
Ceiling: at least 12,000 feet AGL
Clouds: few clouds at 3000 feet AGL
Weather: no significant weather observed at this time

METAR text: RJCK 182300Z 25006KT 9999 FEW030 M07/M13 Q1011
Conditions at: RJCK (KUSHIRO AIRPORT , JP) observed 2300 UTC 18 January 2019
Temperature: -7.0°C (19°F)
Dewpoint: -13.0°C ( 9°F) [RH = 62%]
Pressure (altimeter): 29.85 inches Hg (1011.0 mb)
Winds: from the WSW (250 degrees) at 7 MPH (6 knots; 3.1 m/s)
Visibility: 6 or more miles (10+ km)
Ceiling: at least 12,000 feet AGL
Clouds: few clouds at 3000 feet AGL
Weather: no significant weather observed at this time

METAR text: RJCK 182200Z 24004KT 9999 FEW030 M09/M14 Q1011
Conditions at: RJCK (KUSHIRO AIRPORT , JP) observed 2200 UTC 18 January 2019
Temperature: -9.0°C (16°F)
Dewpoint: -14.0°C ( 7°F) [RH = 67%]
Pressure (altimeter): 29.85 inches Hg (1011.0 mb)
Winds: from the WSW (240 degrees) at 5 MPH (4 knots; 2.1 m/s)
Visibility: 6 or more miles (10+ km)
Ceiling: at least 12,000 feet AGL
Clouds: few clouds at 3000 feet AGL
Weather: no significant weather observed at this time

METAR text: RJCK 182145Z VRB01KT 9999 FEW030 M09/M15 Q1011 RMK 1CU030 A2986
Conditions at: RJCK (KUSHIRO AIRPORT , JP) observed 2145 UTC 18 January 2019
Temperature: -9.0°C (16°F)
Dewpoint: -15.0°C ( 5°F) [RH = 62%]
Pressure (altimeter): 29.85 inches Hg (1011.0 mb)
Winds: variable direction winds at 1 MPH (1 knots; 0.5 m/s)
Visibility: 6 or more miles (10+ km)
Ceiling: at least 12,000 feet AGL
Clouds: few clouds at 3000 feet AGL
Weather: no significant weather observed at this time

METAR text: RJCK 181100Z 31008KT 9999 FEW020 M05/M13 Q1006
Conditions at: RJCK (KUSHIRO AIRPORT , JP) observed 1100 UTC 18 January 2019
Temperature: -5.0°C (23°F)
Dewpoint: -13.0°C ( 9°F) [RH = 53%]
Pressure (altimeter): 29.70 inches Hg (1006.0 mb)
Winds: from the NW (310 degrees) at 9 MPH (8 knots; 4.1 m/s)
Visibility: 6 or more miles (10+ km)
Ceiling: at least 12,000 feet AGL
Clouds: few clouds at 2000 feet AGL
Weather: no significant weather observed at this time

METAR text: RJCK 181000Z 33004KT 9999 FEW020 M06/M11 Q1005
Conditions at: RJCK (KUSHIRO AIRPORT , JP) observed 1000 UTC 18 January 2019
Temperature: -6.0°C (21°F)
Dewpoint: -11.0°C (12°F) [RH = 68%]
Pressure (altimeter): 29.68 inches Hg (1005.0 mb)
Winds: from the NNW (330 degrees) at 5 MPH (4 knots; 2.1 m/s)
Visibility: 6 or more miles (10+ km)
Ceiling: at least 12,000 feet AGL
Clouds: few clouds at 2000 feet AGL
Weather: no significant weather observed at this time

METAR text: RJCK 180900Z 32005KT 270V040 9999 FEW020 SCT040 M04/M14 Q1004
Conditions at: RJCK (KUSHIRO AIRPORT , JP) observed 0900 UTC 18 January 2019
Temperature: -4.0°C (25°F)
Dewpoint: -14.0°C ( 7°F) [RH = 46%]
Pressure (altimeter): 29.65 inches Hg (1004.0 mb)
Winds: from the NW (320 degrees) at 6 MPH (5 knots; 2.6 m/s)
Visibility: 6 or more miles (10+ km)
Ceiling: at least 12,000 feet AGL
Clouds: few clouds at 2000 feet AGL
scattered clouds at 4000 feet AGL
Weather: no significant weather observed at this time

METAR text: RJCK 180800Z 30011KT 9999 FEW020 SCT030 M03/M14 Q1002
Conditions at: RJCK (KUSHIRO AIRPORT , JP) observed 0800 UTC 18 January 2019
Temperature: -3.0°C (27°F)
Dewpoint: -14.0°C ( 7°F) [RH = 42%]
Pressure (altimeter): 29.59 inches Hg (1002.0 mb)
Winds: from the WNW (300 degrees) at 13 MPH (11 knots; 5.7 m/s)
Visibility: 6 or more miles (10+ km)
Ceiling: at least 12,000 feet AGL
Clouds: few clouds at 2000 feet AGL
scattered clouds at 3000 feet AGL
Weather: no significant weather observed at this time

METAR text: RJCK 180700Z 30009KT 260V330 9999 FEW020 SCT030 M03/M13 Q1001
Conditions at: RJCK (KUSHIRO AIRPORT , JP) observed 0700 UTC 18 January 2019
Temperature: -3.0°C (27°F)
Dewpoint: -13.0°C ( 9°F) [RH = 46%]
Pressure (altimeter): 29.56 inches Hg (1001.0 mb)
Winds: from the WNW (300 degrees) at 10 MPH (9 knots; 4.6 m/s)
Visibility: 6 or more miles (10+ km)
Ceiling: at least 12,000 feet AGL
Clouds: few clouds at 2000 feet AGL
scattered clouds at 3000 feet AGL
Weather: no significant weather observed at this time

METAR text: RJCK 180600Z 29012KT 250V340 9999 FEW020 SCT040 BKN070 M02/M12 Q1000
Conditions at: RJCK (KUSHIRO AIRPORT , JP) observed 0600 UTC 18 January 2019
Temperature: -2.0°C (28°F)
Dewpoint: -12.0°C (10°F) [RH = 46%]
Pressure (altimeter): 29.53 inches Hg (1000.0 mb)
Winds: from the WNW (290 degrees) at 14 MPH (12 knots; 6.2 m/s)
Visibility: 6 or more miles (10+ km)
Ceiling: 7000 feet AGL
Clouds: few clouds at 2000 feet AGL
scattered clouds at 4000 feet AGL
broken clouds at 7000 feet AGL
Weather: no significant weather observed at this time

METAR text: RJCK 180500Z 27015KT 9999 FEW020 SCT040 M02/M14 Q0999
Conditions at: RJCK (KUSHIRO AIRPORT , JP) observed 0500 UTC 18 January 2019
Temperature: -2.0°C (28°F)
Dewpoint: -14.0°C ( 7°F) [RH = 39%]
Pressure (altimeter): 29.50 inches Hg (999.0 mb)
Winds: from the W (270 degrees) at 17 MPH (15 knots; 7.7 m/s)
Visibility: 6 or more miles (10+ km)
Ceiling: at least 12,000 feet AGL
Clouds: few clouds at 2000 feet AGL
scattered clouds at 4000 feet AGL
Weather: no significant weather observed at this time

METAR text: RJCK 180400Z 28016G30KT 9999 FEW020 SCT050 M01/M14 Q0999
Conditions at: RJCK (KUSHIRO AIRPORT , JP) observed 0400 UTC 18 January 2019
Temperature: -1.0°C (30°F)
Dewpoint: -14.0°C ( 7°F) [RH = 37%]
Pressure (altimeter): 29.50 inches Hg (999.0 mb)
Winds: from the W (280 degrees) at 18 MPH (16 knots; 8.2 m/s)
gusting to 34 MPH (30 knots; 15.4 m/s)
Visibility: 6 or more miles (10+ km)
Ceiling: at least 12,000 feet AGL
Clouds: few clouds at 2000 feet AGL
scattered clouds at 5000 feet AGL
Weather: no significant weather observed at this time

METAR text: RJCK 180300Z 29013G23KT 250V320 9999 FEW030 M02/M15 Q0999
Conditions at: RJCK (KUSHIRO AIRPORT , JP) observed 0300 UTC 18 January 2019
Temperature: -2.0°C (28°F)
Dewpoint: -15.0°C ( 5°F) [RH = 36%]
Pressure (altimeter): 29.50 inches Hg (999.0 mb)
Winds: from the WNW (290 degrees) at 15 MPH (13 knots; 6.7 m/s)
gusting to 26 MPH (23 knots; 11.8 m/s)
Visibility: 6 or more miles (10+ km)
Ceiling: at least 12,000 feet AGL
Clouds: few clouds at 3000 feet AGL
Weather: no significant weather observed at this time

Forecast for: RJCK (KUSHIRO AIRPORT , JP)
Text: TAF RJCK 191112Z 1912/2018 34005KT 9999 FEW030
Forecast period: 1200 UTC 19 January 2019 to 1800 UTC 20 January 2019
Forecast type: FROM: standard forecast or significant change
Winds: from the NNW (340 degrees) at 6 MPH (5 knots; 2.6 m/s)
Visibility: 6 or more miles 10+ km)
Ceiling: at least 12,000 feet AGL
Clouds: few clouds at 3000 feet AGL
Weather: no significant weather forecast for this period
Text: TEMPO 2009/2012 2000 -SHSN FEW003 BKN006
Forecast period: 0900 to 1200 UTC 20 January 2019
Forecast type: TEMPORARY: The following changes expected for less than half the time period
Visibility: 1.24 miles (2.00 km)
Ceiling: 600 feet AGL
Clouds: few clouds at 300 feet AGL
broken clouds at 600 feet AGL
Weather: -SHSN  (light snow showers)
Text: TEMPO 2012/2018 0700 SHSN VV004
Forecast period: 1200 to 1800 UTC 20 January 2019
Forecast type: TEMPORARY: The following changes expected for less than half the time period
Visibility: 0.43 miles (0.69 km)
Ceiling: indefinite ceiling with vertical visibility of 400 feet AGL
Clouds: obscured sky
Weather: SHSN  (snow showers)